sensor_id;sensor_type;location;lat;lon;timestamp;P1;durP1;ratioP1;P2;durP2;ratioP2
63087;SDS011;49173;43.164;27.786;2023-04-28T00:01:25;5.88;;;2.33;;
63087;SDS011;49173;43.164;27.786;2023-04-28T00:03:52;6.95;;;2.60;;
63087;SDS011;49173;43.164;27.786;2023-04-28T00:06:17;5.43;;;2.30;;
63087;SDS011;49173;43.164;27.786;2023-04-28T00:08:44;7.57;;;2.63;;
63087;SDS011;49173;43.164;27.786;2023-04-28T00:11:09;7.18;;;2.42;;
63087;SDS011;49173;43.164;27.786;2023-04-28T00:13:36;6.70;;;2.30;;
63087;SDS011;49173;43.164;27.786;2023-04-28T00:16:02;6.78;;;2.50;;
63087;SDS011;49173;43.164;27.786;2023-04-28T00:18:28;5.65;;;2.53;;
63087;SDS011;49173;43.164;27.786;2023-04-28T00:20:54;5.50;;;2.60;;
63087;SDS011;49173;43.164;27.786;2023-04-28T00:23:21;5.95;;;2.20;;
63087;SDS011;49173;43.164;27.786;2023-04-28T00:25:53;4.32;;;2.15;;
63087;SDS011;49173;43.164;27.786;2023-04-28T00:28:20;6.15;;;2.72;;
63087;SDS011;49173;43.164;27.786;2023-04-28T00:30:46;7.25;;;2.83;;
63087;SDS011;49173;43.164;27.786;2023-04-28T00:33:12;5.00;;;2.10;;
63087;SDS011;49173;43.164;27.786;2023-04-28T00:35:38;6.53;;;2.58;;
63087;SDS011;49173;43.164;27.786;2023-04-28T00:38:06;3.92;;;2.20;;
63087;SDS011;49173;43.164;27.786;2023-04-28T00:40:32;4.78;;;2.58;;
63087;SDS011;49173;43.164;27.786;2023-04-28T00:42:59;5.55;;;2.65;;
63087;SDS011;49173;43.164;27.786;2023-04-28T00:45:25;8.20;;;2.88;;
63087;SDS011;49173;43.164;27.786;2023-04-28T00:47:51;5.68;;;2.42;;
63087;SDS011;49173;43.164;27.786;2023-04-28T00:50:17;5.13;;;2.60;;
63087;SDS011;49173;43.164;27.786;2023-04-28T00:52:43;8.60;;;2.85;;
63087;SDS011;49173;43.164;27.786;2023-04-28T00:55:09;5.97;;;2.75;;
63087;SDS011;49173;43.164;27.786;2023-04-28T00:57:35;4.85;;;2.72;;
63087;SDS011;49173;43.164;27.786;2023-04-28T01:00:01;5.78;;;2.70;;
63087;SDS011;49173;43.164;27.786;2023-04-28T01:02:27;5.43;;;2.58;;
63087;SDS011;49173;43.164;27.786;2023-04-28T01:04:57;6.55;;;2.65;;
63087;SDS011;49173;43.164;27.786;2023-04-28T01:09:50;4.93;;;2.50;;
63087;SDS011;49173;43.164;27.786;2023-04-28T01:12:15;5.38;;;2.78;;
63087;SDS011;49173;43.164;27.786;2023-04-28T01:14:41;3.72;;;2.38;;
63087;SDS011;49173;43.164;27.786;2023-04-28T01:17:08;4.82;;;2.55;;
63087;SDS011;49173;43.164;27.786;2023-04-28T01:19:35;6.10;;;2.55;;
63087;SDS011;49173;43.164;27.786;2023-04-28T01:22:01;7.55;;;2.80;;
63087;SDS011;49173;43.164;27.786;2023-04-28T01:24:26;6.97;;;2.97;;
63087;SDS011;49173;43.164;27.786;2023-04-28T01:26:52;5.13;;;2.50;;
63087;SDS011;49173;43.164;27.786;2023-04-28T01:29:18;5.43;;;2.70;;
63087;SDS011;49173;43.164;27.786;2023-04-28T01:31:44;12.60;;;2.60;;
63087;SDS011;49173;43.164;27.786;2023-04-28T01:34:09;6.88;;;2.83;;
63087;SDS011;49173;43.164;27.786;2023-04-28T01:36:35;6.35;;;2.63;;
63087;SDS011;49173;43.164;27.786;2023-04-28T01:39:01;6.32;;;2.75;;
63087;SDS011;49173;43.164;27.786;2023-04-28T01:41:28;6.80;;;2.75;;
63087;SDS011;49173;43.164;27.786;2023-04-28T01:43:54;5.25;;;2.75;;
63087;SDS011;49173;43.164;27.786;2023-04-28T01:46:20;4.63;;;2.83;;
63087;SDS011;49173;43.164;27.786;2023-04-28T01:48:46;7.72;;;3.05;;
63087;SDS011;49173;43.164;27.786;2023-04-28T01:51:12;6.05;;;2.70;;
63087;SDS011;49173;43.164;27.786;2023-04-28T01:53:37;7.35;;;3.00;;
63087;SDS011;49173;43.164;27.786;2023-04-28T01:56:03;7.30;;;3.30;;
63087;SDS011;49173;43.164;27.786;2023-04-28T01:58:29;5.85;;;3.15;;
63087;SDS011;49173;43.164;27.786;2023-04-28T02:00:55;6.15;;;2.80;;
63087;SDS011;49173;43.164;27.786;2023-04-28T02:03:21;8.23;;;3.17;;
63087;SDS011;49173;43.164;27.786;2023-04-28T02:05:47;7.22;;;2.92;;
63087;SDS011;49173;43.164;27.786;2023-04-28T02:08:12;4.80;;;2.70;;
63087;SDS011;49173;43.164;27.786;2023-04-28T02:10:38;5.85;;;3.05;;
63087;SDS011;49173;43.164;27.786;2023-04-28T02:13:04;9.13;;;3.28;;
63087;SDS011;49173;43.164;27.786;2023-04-28T02:15:29;6.40;;;3.20;;
63087;SDS011;49173;43.164;27.786;2023-04-28T02:17:55;9.02;;;3.20;;
63087;SDS011;49173;43.164;27.786;2023-04-28T02:20:21;5.55;;;3.10;;
63087;SDS011;49173;43.164;27.786;2023-04-28T02:22:47;6.10;;;2.78;;
63087;SDS011;49173;43.164;27.786;2023-04-28T02:25:13;9.57;;;3.28;;
63087;SDS011;49173;43.164;27.786;2023-04-28T02:27:39;8.90;;;3.28;;
63087;SDS011;49173;43.164;27.786;2023-04-28T02:30:05;8.02;;;3.17;;
63087;SDS011;49173;43.164;27.786;2023-04-28T02:32:32;7.00;;;3.25;;
63087;SDS011;49173;43.164;27.786;2023-04-28T02:34:58;5.75;;;3.40;;
63087;SDS011;49173;43.164;27.786;2023-04-28T02:37:24;6.85;;;4.20;;
63087;SDS011;49173;43.164;27.786;2023-04-28T02:39:50;7.53;;;4.15;;
63087;SDS011;49173;43.164;27.786;2023-04-28T02:42:16;7.88;;;4.43;;
63087;SDS011;49173;43.164;27.786;2023-04-28T02:44:42;11.52;;;4.55;;
63087;SDS011;49173;43.164;27.786;2023-04-28T02:47:07;11.73;;;5.57;;
63087;SDS011;49173;43.164;27.786;2023-04-28T02:49:33;9.27;;;5.70;;
63087;SDS011;49173;43.164;27.786;2023-04-28T02:51:59;11.80;;;5.75;;
63087;SDS011;49173;43.164;27.786;2023-04-28T02:54:25;9.57;;;5.03;;
63087;SDS011;49173;43.164;27.786;2023-04-28T02:56:54;15.50;;;5.45;;
63087;SDS011;49173;43.164;27.786;2023-04-28T02:59:21;9.10;;;5.35;;
63087;SDS011;49173;43.164;27.786;2023-04-28T03:01:48;13.77;;;5.30;;
63087;SDS011;49173;43.164;27.786;2023-04-28T03:04:14;10.45;;;5.20;;
63087;SDS011;49173;43.164;27.786;2023-04-28T03:06:41;9.25;;;5.15;;
63087;SDS011;49173;43.164;27.786;2023-04-28T03:09:07;7.15;;;5.18;;
63087;SDS011;49173;43.164;27.786;2023-04-28T03:11:34;13.10;;;5.72;;
63087;SDS011;49173;43.164;27.786;2023-04-28T03:14:00;9.05;;;5.32;;
63087;SDS011;49173;43.164;27.786;2023-04-28T03:16:26;8.20;;;5.38;;
63087;SDS011;49173;43.164;27.786;2023-04-28T03:18:52;6.70;;;5.10;;
63087;SDS011;49173;43.164;27.786;2023-04-28T03:21:17;8.60;;;4.97;;
63087;SDS011;49173;43.164;27.786;2023-04-28T03:23:43;7.07;;;5.05;;
63087;SDS011;49173;43.164;27.786;2023-04-28T03:26:09;14.27;;;5.03;;
63087;SDS011;49173;43.164;27.786;2023-04-28T03:28:35;8.85;;;5.18;;
63087;SDS011;49173;43.164;27.786;2023-04-28T03:31:01;9.02;;;5.28;;
63087;SDS011;49173;43.164;27.786;2023-04-28T03:33:27;8.70;;;5.85;;
63087;SDS011;49173;43.164;27.786;2023-04-28T03:35:54;12.75;;;5.68;;
63087;SDS011;49173;43.164;27.786;2023-04-28T03:38:20;9.82;;;5.47;;
63087;SDS011;49173;43.164;27.786;2023-04-28T03:40:46;8.98;;;5.00;;
63087;SDS011;49173;43.164;27.786;2023-04-28T03:43:13;8.07;;;5.20;;
63087;SDS011;49173;43.164;27.786;2023-04-28T03:45:39;12.07;;;5.75;;
63087;SDS011;49173;43.164;27.786;2023-04-28T03:48:06;10.35;;;6.38;;
63087;SDS011;49173;43.164;27.786;2023-04-28T03:50:32;14.85;;;7.38;;
63087;SDS011;49173;43.164;27.786;2023-04-28T03:52:57;8.52;;;6.15;;
63087;SDS011;49173;43.164;27.786;2023-04-28T03:55:23;13.13;;;6.43;;
63087;SDS011;49173;43.164;27.786;2023-04-28T03:57:51;10.27;;;5.85;;
63087;SDS011;49173;43.164;27.786;2023-04-28T04:00:17;10.50;;;6.60;;
63087;SDS011;49173;43.164;27.786;2023-04-28T04:02:43;8.88;;;5.20;;
63087;SDS011;49173;43.164;27.786;2023-04-28T04:05:09;9.35;;;5.38;;
63087;SDS011;49173;43.164;27.786;2023-04-28T04:07:34;11.35;;;5.10;;
63087;SDS011;49173;43.164;27.786;2023-04-28T04:10:00;10.25;;;5.38;;
63087;SDS011;49173;43.164;27.786;2023-04-28T04:12:26;8.23;;;5.07;;
63087;SDS011;49173;43.164;27.786;2023-04-28T04:14:52;12.10;;;6.45;;
63087;SDS011;49173;43.164;27.786;2023-04-28T04:17:18;7.88;;;5.55;;
63087;SDS011;49173;43.164;27.786;2023-04-28T04:19:43;10.50;;;6.35;;
63087;SDS011;49173;43.164;27.786;2023-04-28T04:22:09;14.27;;;6.78;;
63087;SDS011;49173;43.164;27.786;2023-04-28T04:24:35;10.05;;;5.82;;
63087;SDS011;49173;43.164;27.786;2023-04-28T04:27:01;14.93;;;5.70;;
63087;SDS011;49173;43.164;27.786;2023-04-28T04:29:26;10.20;;;5.38;;
63087;SDS011;49173;43.164;27.786;2023-04-28T04:31:52;12.63;;;6.07;;
63087;SDS011;49173;43.164;27.786;2023-04-28T04:34:18;9.98;;;5.82;;
63087;SDS011;49173;43.164;27.786;2023-04-28T04:36:44;8.63;;;5.38;;
63087;SDS011;49173;43.164;27.786;2023-04-28T04:39:09;9.05;;;4.90;;
63087;SDS011;49173;43.164;27.786;2023-04-28T04:41:35;8.55;;;4.65;;
63087;SDS011;49173;43.164;27.786;2023-04-28T04:44:01;7.90;;;4.18;;
63087;SDS011;49173;43.164;27.786;2023-04-28T04:46:28;6.65;;;3.78;;
63087;SDS011;49173;43.164;27.786;2023-04-28T04:48:54;9.63;;;3.80;;
63087;SDS011;49173;43.164;27.786;2023-04-28T04:51:21;7.28;;;4.40;;
63087;SDS011;49173;43.164;27.786;2023-04-28T04:53:47;8.52;;;4.15;;
63087;SDS011;49173;43.164;27.786;2023-04-28T04:56:12;7.50;;;4.25;;
63087;SDS011;49173;43.164;27.786;2023-04-28T04:58:38;9.30;;;4.07;;
63087;SDS011;49173;43.164;27.786;2023-04-28T05:01:11;6.35;;;3.65;;
63087;SDS011;49173;43.164;27.786;2023-04-28T05:03:36;6.32;;;3.60;;
63087;SDS011;49173;43.164;27.786;2023-04-28T05:06:02;5.75;;;3.22;;
63087;SDS011;49173;43.164;27.786;2023-04-28T05:08:28;6.35;;;3.28;;
63087;SDS011;49173;43.164;27.786;2023-04-28T05:10:54;18.35;;;3.45;;
63087;SDS011;49173;43.164;27.786;2023-04-28T05:13:20;6.50;;;3.00;;
63087;SDS011;49173;43.164;27.786;2023-04-28T05:15:46;4.90;;;2.95;;
63087;SDS011;49173;43.164;27.786;2023-04-28T05:18:11;4.85;;;2.50;;
63087;SDS011;49173;43.164;27.786;2023-04-28T05:20:38;5.82;;;2.45;;
63087;SDS011;49173;43.164;27.786;2023-04-28T05:23:04;5.05;;;2.25;;
63087;SDS011;49173;43.164;27.786;2023-04-28T05:25:31;4.75;;;2.50;;
63087;SDS011;49173;43.164;27.786;2023-04-28T05:27:57;6.57;;;2.30;;
63087;SDS011;49173;43.164;27.786;2023-04-28T05:30:22;4.80;;;2.42;;
63087;SDS011;49173;43.164;27.786;2023-04-28T05:32:48;4.85;;;2.58;;
63087;SDS011;49173;43.164;27.786;2023-04-28T05:35:14;5.65;;;2.20;;
63087;SDS011;49173;43.164;27.786;2023-04-28T05:37:40;5.50;;;2.42;;
63087;SDS011;49173;43.164;27.786;2023-04-28T05:40:08;5.28;;;2.28;;
63087;SDS011;49173;43.164;27.786;2023-04-28T05:42:34;7.57;;;2.80;;
63087;SDS011;49173;43.164;27.786;2023-04-28T05:45:01;4.05;;;2.40;;
63087;SDS011;49173;43.164;27.786;2023-04-28T05:47:27;5.75;;;2.42;;
63087;SDS011;49173;43.164;27.786;2023-04-28T05:49:54;4.80;;;2.22;;
63087;SDS011;49173;43.164;27.786;2023-04-28T05:52:20;5.88;;;2.22;;
63087;SDS011;49173;43.164;27.786;2023-04-28T05:54:45;5.22;;;2.20;;
63087;SDS011;49173;43.164;27.786;2023-04-28T05:57:11;4.57;;;2.15;;
63087;SDS011;49173;43.164;27.786;2023-04-28T05:59:37;6.68;;;2.25;;
63087;SDS011;49173;43.164;27.786;2023-04-28T06:02:03;6.18;;;2.25;;
63087;SDS011;49173;43.164;27.786;2023-04-28T06:04:28;7.35;;;2.50;;
63087;SDS011;49173;43.164;27.786;2023-04-28T06:06:54;5.80;;;2.35;;
63087;SDS011;49173;43.164;27.786;2023-04-28T06:09:20;4.45;;;2.28;;
63087;SDS011;49173;43.164;27.786;2023-04-28T06:11:46;5.97;;;2.20;;
63087;SDS011;49173;43.164;27.786;2023-04-28T06:14:12;5.38;;;2.20;;
63087;SDS011;49173;43.164;27.786;2023-04-28T06:16:37;4.85;;;1.95;;
63087;SDS011;49173;43.164;27.786;2023-04-28T06:19:03;4.32;;;2.05;;
63087;SDS011;49173;43.164;27.786;2023-04-28T06:21:29;4.70;;;1.95;;
63087;SDS011;49173;43.164;27.786;2023-04-28T06:23:56;3.17;;;1.95;;
63087;SDS011;49173;43.164;27.786;2023-04-28T06:26:22;4.93;;;2.03;;
63087;SDS011;49173;43.164;27.786;2023-04-28T06:28:48;5.97;;;2.10;;
63087;SDS011;49173;43.164;27.786;2023-04-28T06:31:15;3.92;;;1.90;;
63087;SDS011;49173;43.164;27.786;2023-04-28T06:33:41;7.68;;;1.90;;
63087;SDS011;49173;43.164;27.786;2023-04-28T06:36:07;6.55;;;2.00;;
63087;SDS011;49173;43.164;27.786;2023-04-28T06:38:33;4.22;;;2.10;;
63087;SDS011;49173;43.164;27.786;2023-04-28T06:40:58;7.15;;;2.08;;
63087;SDS011;49173;43.164;27.786;2023-04-28T06:43:25;6.43;;;1.83;;
63087;SDS011;49173;43.164;27.786;2023-04-28T06:45:51;4.43;;;1.77;;
63087;SDS011;49173;43.164;27.786;2023-04-28T06:48:17;5.50;;;1.80;;
63087;SDS011;49173;43.164;27.786;2023-04-28T06:50:42;4.57;;;1.83;;
63087;SDS011;49173;43.164;27.786;2023-04-28T06:53:08;4.18;;;1.42;;
63087;SDS011;49173;43.164;27.786;2023-04-28T06:55:34;4.90;;;1.80;;
63087;SDS011;49173;43.164;27.786;2023-04-28T06:58:00;5.13;;;1.92;;
63087;SDS011;49173;43.164;27.786;2023-04-28T07:00:25;3.80;;;1.80;;
63087;SDS011;49173;43.164;27.786;2023-04-28T07:02:51;12.23;;;2.55;;
63087;SDS011;49173;43.164;27.786;2023-04-28T07:05:17;6.50;;;1.70;;
63087;SDS011;49173;43.164;27.786;2023-04-28T07:07:43;6.40;;;3.33;;
63087;SDS011;49173;43.164;27.786;2023-04-28T07:10:10;4.78;;;1.80;;
63087;SDS011;49173;43.164;27.786;2023-04-28T07:12:35;3.00;;;1.70;;
63087;SDS011;49173;43.164;27.786;2023-04-28T07:15:01;4.93;;;1.70;;
63087;SDS011;49173;43.164;27.786;2023-04-28T07:17:27;2.65;;;1.50;;
63087;SDS011;49173;43.164;27.786;2023-04-28T07:19:53;5.75;;;1.70;;
63087;SDS011;49173;43.164;27.786;2023-04-28T07:22:18;5.25;;;1.60;;
63087;SDS011;49173;43.164;27.786;2023-04-28T07:24:44;5.43;;;2.00;;
63087;SDS011;49173;43.164;27.786;2023-04-28T07:27:10;5.05;;;1.70;;
63087;SDS011;49173;43.164;27.786;2023-04-28T07:29:37;4.45;;;2.03;;
63087;SDS011;49173;43.164;27.786;2023-04-28T07:32:02;6.47;;;3.00;;
63087;SDS011;49173;43.164;27.786;2023-04-28T07:34:34;5.47;;;1.90;;
63087;SDS011;49173;43.164;27.786;2023-04-28T07:37:01;4.53;;;1.75;;
63087;SDS011;49173;43.164;27.786;2023-04-28T07:39:29;6.22;;;1.50;;
63087;SDS011;49173;43.164;27.786;2023-04-28T07:41:56;3.08;;;1.52;;
63087;SDS011;49173;43.164;27.786;2023-04-28T07:44:23;4.80;;;1.90;;
63087;SDS011;49173;43.164;27.786;2023-04-28T07:46:49;3.25;;;1.70;;
63087;SDS011;49173;43.164;27.786;2023-04-28T07:49:15;6.20;;;1.88;;
63087;SDS011;49173;43.164;27.786;2023-04-28T07:51:40;3.45;;;1.75;;
63087;SDS011;49173;43.164;27.786;2023-04-28T07:54:07;6.22;;;1.70;;
63087;SDS011;49173;43.164;27.786;2023-04-28T07:56:33;4.18;;;1.77;;
63087;SDS011;49173;43.164;27.786;2023-04-28T07:58:59;3.13;;;1.50;;
63087;SDS011;49173;43.164;27.786;2023-04-28T08:01:25;4.00;;;1.60;;
63087;SDS011;49173;43.164;27.786;2023-04-28T08:03:51;4.13;;;1.60;;
63087;SDS011;49173;43.164;27.786;2023-04-28T08:06:17;3.95;;;1.63;;
63087;SDS011;49173;43.164;27.786;2023-04-28T08:08:44;5.00;;;1.70;;
63087;SDS011;49173;43.164;27.786;2023-04-28T08:11:10;5.72;;;1.58;;
63087;SDS011;49173;43.164;27.786;2023-04-28T08:13:36;3.03;;;1.70;;
63087;SDS011;49173;43.164;27.786;2023-04-28T08:16:02;3.53;;;1.50;;
63087;SDS011;49173;43.164;27.786;2023-04-28T08:18:28;7.35;;;1.80;;
63087;SDS011;49173;43.164;27.786;2023-04-28T08:20:54;3.85;;;1.63;;
63087;SDS011;49173;43.164;27.786;2023-04-28T08:23:20;4.55;;;1.70;;
63087;SDS011;49173;43.164;27.786;2023-04-28T08:25:45;6.38;;;1.50;;
63087;SDS011;49173;43.164;27.786;2023-04-28T08:28:11;3.17;;;1.50;;
63087;SDS011;49173;43.164;27.786;2023-04-28T08:30:38;3.65;;;1.83;;
63087;SDS011;49173;43.164;27.786;2023-04-28T08:33:04;3.25;;;1.48;;
63087;SDS011;49173;43.164;27.786;2023-04-28T08:35:30;5.40;;;1.80;;
63087;SDS011;49173;43.164;27.786;2023-04-28T08:37:56;9.70;;;3.30;;
63087;SDS011;49173;43.164;27.786;2023-04-28T08:40:23;7.82;;;1.77;;
63087;SDS011;49173;43.164;27.786;2023-04-28T08:42:49;4.85;;;2.08;;
63087;SDS011;49173;43.164;27.786;2023-04-28T08:45:15;6.53;;;1.95;;
63087;SDS011;49173;43.164;27.786;2023-04-28T08:47:42;8.15;;;1.70;;
63087;SDS011;49173;43.164;27.786;2023-04-28T08:50:12;4.75;;;1.67;;
63087;SDS011;49173;43.164;27.786;2023-04-28T08:52:39;7.55;;;2.08;;
63087;SDS011;49173;43.164;27.786;2023-04-28T08:55:09;4.00;;;1.48;;
63087;SDS011;49173;43.164;27.786;2023-04-28T08:57:37;3.92;;;1.52;;
63087;SDS011;49173;43.164;27.786;2023-04-28T09:00:06;4.97;;;1.70;;
63087;SDS011;49173;43.164;27.786;2023-04-28T09:02:33;4.82;;;1.70;;
63087;SDS011;49173;43.164;27.786;2023-04-28T09:04:59;4.55;;;2.10;;
63087;SDS011;49173;43.164;27.786;2023-04-28T09:07:24;3.63;;;1.65;;
63087;SDS011;49173;43.164;27.786;2023-04-28T09:09:53;5.40;;;1.90;;
63087;SDS011;49173;43.164;27.786;2023-04-28T09:12:44;7.43;;;1.40;;
63087;SDS011;49173;43.164;27.786;2023-04-28T09:15:14;7.22;;;1.80;;
63087;SDS011;49173;43.164;27.786;2023-04-28T09:17:57;3.45;;;1.42;;
63087;SDS011;49173;43.164;27.786;2023-04-28T09:20:26;7.85;;;1.65;;
63087;SDS011;49173;43.164;27.786;2023-04-28T09:22:53;3.22;;;1.67;;
63087;SDS011;49173;43.164;27.786;2023-04-28T09:25:21;7.35;;;1.77;;
63087;SDS011;49173;43.164;27.786;2023-04-28T09:27:51;7.18;;;1.50;;
63087;SDS011;49173;43.164;27.786;2023-04-28T09:30:17;6.50;;;2.15;;
63087;SDS011;49173;43.164;27.786;2023-04-28T09:32:43;5.05;;;1.90;;
63087;SDS011;49173;43.164;27.786;2023-04-28T09:35:09;3.85;;;1.60;;
63087;SDS011;49173;43.164;27.786;2023-04-28T09:37:34;5.95;;;1.77;;
63087;SDS011;49173;43.164;27.786;2023-04-28T09:40:08;2.85;;;1.45;;
63087;SDS011;49173;43.164;27.786;2023-04-28T09:42:38;2.95;;;1.40;;
63087;SDS011;49173;43.164;27.786;2023-04-28T09:45:11;6.20;;;1.98;;
63087;SDS011;49173;43.164;27.786;2023-04-28T09:47:39;4.30;;;1.67;;
63087;SDS011;49173;43.164;27.786;2023-04-28T09:50:07;5.43;;;1.88;;
63087;SDS011;49173;43.164;27.786;2023-04-28T09:52:36;6.50;;;2.05;;
63087;SDS011;49173;43.164;27.786;2023-04-28T09:55:03;6.97;;;1.83;;
63087;SDS011;49173;43.164;27.786;2023-04-28T09:57:31;5.60;;;1.70;;
63087;SDS011;49173;43.164;27.786;2023-04-28T09:59:58;7.72;;;1.98;;
63087;SDS011;49173;43.164;27.786;2023-04-28T10:02:25;3.53;;;1.63;;
63087;SDS011;49173;43.164;27.786;2023-04-28T10:04:51;3.70;;;1.60;;
63087;SDS011;49173;43.164;27.786;2023-04-28T10:07:20;6.80;;;1.60;;
63087;SDS011;49173;43.164;27.786;2023-04-28T10:09:47;7.25;;;1.77;;
63087;SDS011;49173;43.164;27.786;2023-04-28T10:12:17;4.15;;;1.42;;
63087;SDS011;49173;43.164;27.786;2023-04-28T10:14:45;6.07;;;1.63;;
63087;SDS011;49173;43.164;27.786;2023-04-28T10:17:14;3.55;;;1.42;;
63087;SDS011;49173;43.164;27.786;2023-04-28T10:19:45;5.88;;;1.40;;
63087;SDS011;49173;43.164;27.786;2023-04-28T10:27:39;3.92;;;1.40;;
63087;SDS011;49173;43.164;27.786;2023-04-28T10:30:11;4.63;;;1.52;;
63087;SDS011;49173;43.164;27.786;2023-04-28T10:32:38;2.90;;;1.50;;
63087;SDS011;49173;43.164;27.786;2023-04-28T10:38:06;4.75;;;1.40;;
63087;SDS011;49173;43.164;27.786;2023-04-28T10:40:33;6.43;;;1.40;;
63087;SDS011;49173;43.164;27.786;2023-04-28T10:43:01;6.93;;;1.70;;
63087;SDS011;49173;43.164;27.786;2023-04-28T10:48:19;6.22;;;1.52;;
63087;SDS011;49173;43.164;27.786;2023-04-28T10:56:10;4.60;;;1.50;;
63087;SDS011;49173;43.164;27.786;2023-04-28T10:58:43;4.53;;;1.60;;
63087;SDS011;49173;43.164;27.786;2023-04-28T11:04:08;5.63;;;1.60;;
63087;SDS011;49173;43.164;27.786;2023-04-28T11:06:38;5.03;;;1.50;;
63087;SDS011;49173;43.164;27.786;2023-04-28T11:16:51;4.35;;;1.40;;
63087;SDS011;49173;43.164;27.786;2023-04-28T11:19:19;3.28;;;1.45;;
63087;SDS011;49173;43.164;27.786;2023-04-28T11:21:47;3.95;;;1.20;;
63087;SDS011;49173;43.164;27.786;2023-04-28T11:24:13;2.40;;;1.40;;
63087;SDS011;49173;43.164;27.786;2023-04-28T11:26:39;3.45;;;1.42;;
63087;SDS011;49173;43.164;27.786;2023-04-28T11:29:05;6.38;;;1.50;;
63087;SDS011;49173;43.164;27.786;2023-04-28T11:31:32;2.92;;;1.40;;
63087;SDS011;49173;43.164;27.786;2023-04-28T11:33:59;5.75;;;1.60;;
63087;SDS011;49173;43.164;27.786;2023-04-28T11:36:33;6.15;;;1.70;;
63087;SDS011;49173;43.164;27.786;2023-04-28T11:39:03;4.50;;;1.60;;
63087;SDS011;49173;43.164;27.786;2023-04-28T11:41:32;7.20;;;1.63;;
63087;SDS011;49173;43.164;27.786;2023-04-28T11:44:08;5.25;;;1.50;;
63087;SDS011;49173;43.164;27.786;2023-04-28T11:49:14;3.38;;;1.73;;
63087;SDS011;49173;43.164;27.786;2023-04-28T11:51:41;6.95;;;1.40;;
63087;SDS011;49173;43.164;27.786;2023-04-28T11:54:09;3.22;;;1.55;;
63087;SDS011;49173;43.164;27.786;2023-04-28T11:56:42;6.65;;;1.60;;
63087;SDS011;49173;43.164;27.786;2023-04-28T11:59:10;7.95;;;1.60;;
63087;SDS011;49173;43.164;27.786;2023-04-28T12:01:47;4.57;;;1.70;;
63087;SDS011;49173;43.164;27.786;2023-04-28T12:04:30;4.22;;;1.40;;
63087;SDS011;49173;43.164;27.786;2023-04-28T12:07:01;4.07;;;1.60;;
63087;SDS011;49173;43.164;27.786;2023-04-28T12:09:32;4.18;;;1.70;;
63087;SDS011;49173;43.164;27.786;2023-04-28T12:12:03;4.03;;;1.40;;
63087;SDS011;49173;43.164;27.786;2023-04-28T12:14:31;4.60;;;1.52;;
63087;SDS011;49173;43.164;27.786;2023-04-28T12:17:49;4.03;;;1.40;;
63087;SDS011;49173;43.164;27.786;2023-04-28T12:20:09;3.58;;;1.40;;
63087;SDS011;49173;43.164;27.786;2023-04-28T12:23:09;4.68;;;1.80;;
63087;SDS011;49173;43.164;27.786;2023-04-28T12:25:28;4.95;;;1.60;;
63087;SDS011;49173;43.164;27.786;2023-04-28T12:28:01;3.00;;;1.40;;
63087;SDS011;49173;43.164;27.786;2023-04-28T12:30:32;3.22;;;1.40;;
63087;SDS011;49173;43.164;27.786;2023-04-28T12:33:00;9.82;;;1.90;;
63087;SDS011;49173;43.164;27.786;2023-04-28T12:35:27;4.00;;;1.85;;
63087;SDS011;49173;43.164;27.786;2023-04-28T12:37:53;4.18;;;1.65;;
63087;SDS011;49173;43.164;27.786;2023-04-28T12:40:21;8.43;;;1.83;;
63087;SDS011;49173;43.164;27.786;2023-04-28T12:42:48;2.63;;;1.40;;
63087;SDS011;49173;43.164;27.786;2023-04-28T12:45:15;7.25;;;1.50;;
63087;SDS011;49173;43.164;27.786;2023-04-28T12:47:41;5.38;;;1.40;;
63087;SDS011;49173;43.164;27.786;2023-04-28T12:50:07;5.28;;;1.70;;
63087;SDS011;49173;43.164;27.786;2023-04-28T12:52:34;7.43;;;1.63;;
63087;SDS011;49173;43.164;27.786;2023-04-28T12:55:02;4.15;;;2.05;;
63087;SDS011;49173;43.164;27.786;2023-04-28T12:57:28;5.45;;;1.48;;
63087;SDS011;49173;43.164;27.786;2023-04-28T12:59:54;4.50;;;1.65;;
63087;SDS011;49173;43.164;27.786;2023-04-28T13:02:21;3.33;;;1.50;;
63087;SDS011;49173;43.164;27.786;2023-04-28T13:04:47;4.43;;;1.58;;
63087;SDS011;49173;43.164;27.786;2023-04-28T13:07:13;4.00;;;1.33;;
63087;SDS011;49173;43.164;27.786;2023-04-28T13:09:40;3.67;;;1.77;;
63087;SDS011;49173;43.164;27.786;2023-04-28T13:12:07;5.18;;;1.80;;
63087;SDS011;49173;43.164;27.786;2023-04-28T13:14:34;5.20;;;1.80;;
63087;SDS011;49173;43.164;27.786;2023-04-28T13:17:00;7.18;;;1.75;;
63087;SDS011;49173;43.164;27.786;2023-04-28T13:19:27;5.43;;;1.70;;
63087;SDS011;49173;43.164;27.786;2023-04-28T13:21:55;5.75;;;2.30;;
63087;SDS011;49173;43.164;27.786;2023-04-28T13:24:21;4.90;;;1.90;;
63087;SDS011;49173;43.164;27.786;2023-04-28T13:26:47;3.65;;;1.80;;
63087;SDS011;49173;43.164;27.786;2023-04-28T13:29:13;6.07;;;1.73;;
63087;SDS011;49173;43.164;27.786;2023-04-28T13:31:39;4.63;;;1.60;;
63087;SDS011;49173;43.164;27.786;2023-04-28T13:34:05;4.32;;;1.42;;
63087;SDS011;49173;43.164;27.786;2023-04-28T13:36:33;5.25;;;1.50;;
63087;SDS011;49173;43.164;27.786;2023-04-28T13:38:59;5.53;;;2.08;;
63087;SDS011;49173;43.164;27.786;2023-04-28T13:41:25;4.05;;;2.30;;
63087;SDS011;49173;43.164;27.786;2023-04-28T13:43:52;2.97;;;2.00;;
63087;SDS011;49173;43.164;27.786;2023-04-28T13:46:18;4.05;;;1.70;;
63087;SDS011;49173;43.164;27.786;2023-04-28T13:48:44;3.83;;;2.10;;
63087;SDS011;49173;43.164;27.786;2023-04-28T13:51:10;6.32;;;2.00;;
63087;SDS011;49173;43.164;27.786;2023-04-28T13:53:36;5.15;;;1.65;;
63087;SDS011;49173;43.164;27.786;2023-04-28T13:56:05;4.88;;;1.60;;
63087;SDS011;49173;43.164;27.786;2023-04-28T13:58:31;6.45;;;1.70;;
63087;SDS011;49173;43.164;27.786;2023-04-28T14:00:58;5.18;;;1.75;;
63087;SDS011;49173;43.164;27.786;2023-04-28T14:03:24;6.78;;;1.60;;
63087;SDS011;49173;43.164;27.786;2023-04-28T14:05:53;3.80;;;1.50;;
63087;SDS011;49173;43.164;27.786;2023-04-28T14:08:20;3.15;;;1.48;;
63087;SDS011;49173;43.164;27.786;2023-04-28T14:10:46;2.97;;;1.70;;
63087;SDS011;49173;43.164;27.786;2023-04-28T14:13:13;3.28;;;1.50;;
63087;SDS011;49173;43.164;27.786;2023-04-28T14:15:39;4.85;;;1.70;;
63087;SDS011;49173;43.164;27.786;2023-04-28T14:18:06;5.32;;;1.63;;
63087;SDS011;49173;43.164;27.786;2023-04-28T14:20:33;5.38;;;1.70;;
63087;SDS011;49173;43.164;27.786;2023-04-28T14:23:00;4.32;;;2.00;;
63087;SDS011;49173;43.164;27.786;2023-04-28T14:25:26;6.20;;;1.70;;
63087;SDS011;49173;43.164;27.786;2023-04-28T14:27:52;3.92;;;1.70;;
63087;SDS011;49173;43.164;27.786;2023-04-28T14:30:19;3.92;;;1.80;;
63087;SDS011;49173;43.164;27.786;2023-04-28T14:32:46;4.40;;;1.45;;
63087;SDS011;49173;43.164;27.786;2023-04-28T14:35:12;4.15;;;1.83;;
63087;SDS011;49173;43.164;27.786;2023-04-28T14:37:39;5.20;;;1.52;;
63087;SDS011;49173;43.164;27.786;2023-04-28T14:40:06;2.70;;;1.30;;
63087;SDS011;49173;43.164;27.786;2023-04-28T14:42:33;4.70;;;1.67;;
63087;SDS011;49173;43.164;27.786;2023-04-28T14:45:07;5.43;;;1.70;;
63087;SDS011;49173;43.164;27.786;2023-04-28T14:47:35;5.57;;;1.75;;
63087;SDS011;49173;43.164;27.786;2023-04-28T14:50:03;13.02;;;2.13;;
63087;SDS011;49173;43.164;27.786;2023-04-28T14:52:29;3.00;;;1.60;;
63087;SDS011;49173;43.164;27.786;2023-04-28T14:54:57;4.32;;;1.60;;
63087;SDS011;49173;43.164;27.786;2023-04-28T14:57:24;3.92;;;1.70;;
63087;SDS011;49173;43.164;27.786;2023-04-28T14:59:51;5.43;;;3.08;;
63087;SDS011;49173;43.164;27.786;2023-04-28T15:02:18;8.05;;;2.00;;
63087;SDS011;49173;43.164;27.786;2023-04-28T15:04:46;5.47;;;3.30;;